createdAt,value
2023-04-28T00:00:26.010Z,601.00
2023-04-28T00:01:26.004Z,600.00
2023-04-28T00:02:26.106Z,602.00
2023-04-28T00:03:26.165Z,599.00
2023-04-28T00:04:26.376Z,596.00
2023-04-28T00:05:26.182Z,596.00
2023-04-28T00:06:26.086Z,585.00
2023-04-28T00:07:26.139Z,583.00
2023-04-28T00:08:26.161Z,581.00
2023-04-28T00:09:26.213Z,583.00
2023-04-28T00:10:26.305Z,584.00
2023-04-28T00:11:26.359Z,587.00
2023-04-28T00:12:26.421Z,587.00
2023-04-28T00:13:26.467Z,587.00
2023-04-28T00:14:26.513Z,590.00
2023-04-28T00:15:26.577Z,588.00
2023-04-28T00:16:26.718Z,590.00
2023-04-28T00:17:26.708Z,588.00
2023-04-28T00:18:26.784Z,590.00
2023-04-28T00:19:26.850Z,592.00
2023-04-28T00:20:26.905Z,598.00
2023-04-28T00:21:26.989Z,599.00
2023-04-28T00:22:26.993Z,596.00
2023-04-28T00:23:27.119Z,596.00
2023-04-28T00:24:27.243Z,596.00
2023-04-28T00:25:27.182Z,595.00
2023-04-28T00:26:27.249Z,594.00
2023-04-28T00:27:27.296Z,597.00
2023-04-28T00:28:34.294Z,593.00
2023-04-28T00:29:28.353Z,593.00
2023-04-28T00:30:27.362Z,594.00
2023-04-28T00:31:27.375Z,593.00
2023-04-28T00:32:27.349Z,587.00
2023-04-28T00:33:27.371Z,588.00
2023-04-28T00:34:27.347Z,587.00
2023-04-28T00:35:27.343Z,584.00
2023-04-28T00:36:27.346Z,582.00
2023-04-28T00:37:27.304Z,578.00
2023-04-28T00:38:27.338Z,570.00
2023-04-28T00:39:27.424Z,575.00
2023-04-28T00:40:27.465Z,571.00
2023-04-28T00:41:27.512Z,563.00
2023-04-28T00:42:27.591Z,562.00
2023-04-28T00:43:27.648Z,556.00
2023-04-28T00:44:27.710Z,556.00
2023-04-28T00:45:27.806Z,562.00
2023-04-28T00:46:27.868Z,563.00
2023-04-28T00:47:27.932Z,552.00
2023-04-28T00:48:27.929Z,550.00
2023-04-28T00:49:27.988Z,565.00
2023-04-28T00:50:28.084Z,572.00
2023-04-28T00:51:28.126Z,584.00
2023-04-28T00:52:28.238Z,604.00
2023-04-28T00:53:28.240Z,604.00
2023-04-28T00:54:28.296Z,594.00
2023-04-28T00:55:28.388Z,598.00
2023-04-28T00:56:29.144Z,596.00
2023-04-28T00:57:28.495Z,594.00
2023-04-28T00:58:28.582Z,594.00
2023-04-28T00:59:28.632Z,590.00
2023-04-28T01:00:28.682Z,601.00
2023-04-28T01:01:28.819Z,607.00
2023-04-28T01:02:28.963Z,600.00
2023-04-28T01:03:28.958Z,589.00
2023-04-28T01:04:29.137Z,588.00
2023-04-28T01:05:28.967Z,585.00
2023-04-28T01:06:29.110Z,581.00
2023-04-28T01:07:29.080Z,583.00
2023-04-28T01:08:29.128Z,581.00
2023-04-28T01:09:29.164Z,578.00
2023-04-28T01:10:29.189Z,573.00
2023-04-28T01:11:29.259Z,577.00
2023-04-28T01:12:29.331Z,587.00
2023-04-28T01:13:29.360Z,589.00
2023-04-28T01:14:29.416Z,591.00
2023-04-28T01:15:29.441Z,588.00
2023-04-28T01:16:29.561Z,590.00
2023-04-28T01:17:29.589Z,586.00
2023-04-28T01:18:29.585Z,582.00
2023-04-28T01:19:29.612Z,588.00
2023-04-28T01:20:29.668Z,585.00
2023-04-28T01:21:29.702Z,584.00
2023-04-28T01:22:29.767Z,586.00
2023-04-28T01:23:29.832Z,592.00
2023-04-28T01:24:29.878Z,595.00
2023-04-28T01:25:29.956Z,593.00
2023-04-28T01:26:29.980Z,587.00
2023-04-28T01:27:30.015Z,580.00
2023-04-28T01:28:30.054Z,580.00
2023-04-28T01:29:30.107Z,578.00
2023-04-28T01:30:30.096Z,572.00
2023-04-28T01:31:30.182Z,565.00
2023-04-28T01:32:30.166Z,565.00
2023-04-28T01:33:30.186Z,561.00
2023-04-28T01:34:30.195Z,571.00
2023-04-28T01:35:30.209Z,569.00
2023-04-28T01:36:30.210Z,563.00
2023-04-28T01:37:30.213Z,568.00
2023-04-28T01:38:30.218Z,560.00
2023-04-28T01:39:30.231Z,553.00
2023-04-28T01:40:30.264Z,563.00
2023-04-28T01:41:30.276Z,554.00
2023-04-28T01:42:30.319Z,554.00
2023-04-28T01:43:30.347Z,556.00
2023-04-28T01:44:30.424Z,567.00
2023-04-28T01:45:30.510Z,564.00
2023-04-28T01:46:30.594Z,559.00
2023-04-28T01:47:30.598Z,561.00
2023-04-28T01:48:30.632Z,553.00
2023-04-28T01:49:30.689Z,555.00
2023-04-28T01:50:30.758Z,557.00
2023-04-28T01:51:30.812Z,560.00
2023-04-28T01:52:30.869Z,552.00
2023-04-28T01:53:30.900Z,545.00
2023-04-28T01:54:30.962Z,550.00
2023-04-28T01:55:31.029Z,560.00
2023-04-28T01:56:31.098Z,558.00
2023-04-28T01:57:31.132Z,551.00
2023-04-28T01:58:31.180Z,547.00
2023-04-28T01:59:31.218Z,545.00
2023-04-28T02:00:31.289Z,541.00
2023-04-28T02:01:31.398Z,542.00
2023-04-28T02:02:31.448Z,545.00
2023-04-28T02:03:31.586Z,546.00
2023-04-28T02:04:31.505Z,554.00
2023-04-28T02:05:31.539Z,551.00
2023-04-28T02:06:31.595Z,550.00
2023-04-28T02:07:31.648Z,551.00
2023-04-28T02:08:32.155Z,550.00
2023-04-28T02:09:31.727Z,546.00
2023-04-28T02:10:31.749Z,549.00
2023-04-28T02:11:31.772Z,543.00
2023-04-28T02:12:31.787Z,550.00
2023-04-28T02:13:31.874Z,554.00
2023-04-28T02:14:31.900Z,552.00
2023-04-28T02:15:31.928Z,544.00
2023-04-28T02:16:32.015Z,545.00
2023-04-28T02:17:32.034Z,549.00
2023-04-28T02:18:31.983Z,547.00
2023-04-28T02:19:31.992Z,543.00
2023-04-28T02:20:33.274Z,541.00
2023-04-28T02:21:32.060Z,538.00
2023-04-28T02:22:32.085Z,533.00
2023-04-28T02:23:32.116Z,532.00
2023-04-28T02:24:32.123Z,530.00
2023-04-28T02:25:32.114Z,531.00
2023-04-28T02:26:32.133Z,541.00
2023-04-28T02:27:32.129Z,544.00
2023-04-28T02:28:32.150Z,561.00
2023-04-28T02:29:32.146Z,561.00
2023-04-28T02:30:32.197Z,560.00
2023-04-28T02:31:32.206Z,554.00
2023-04-28T02:32:32.196Z,559.00
2023-04-28T02:33:32.180Z,556.00
2023-04-28T02:34:32.187Z,561.00
2023-04-28T02:35:32.165Z,556.00
2023-04-28T02:36:32.157Z,553.00
2023-04-28T02:37:32.173Z,544.00
2023-04-28T02:38:32.189Z,550.00
2023-04-28T02:39:32.198Z,561.00
2023-04-28T02:40:32.181Z,563.00
2023-04-28T02:41:32.192Z,568.00
2023-04-28T02:42:32.245Z,566.00
2023-04-28T02:43:32.223Z,574.00
2023-04-28T02:44:32.188Z,571.00
2023-04-28T02:45:32.209Z,576.00
2023-04-28T02:46:32.233Z,581.00
2023-04-28T02:47:32.211Z,585.00
2023-04-28T02:48:32.209Z,594.00
2023-04-28T02:49:32.187Z,598.00
2023-04-28T02:50:32.155Z,606.00
2023-04-28T02:51:32.202Z,605.00
2023-04-28T02:52:32.210Z,602.00
2023-04-28T02:53:32.190Z,601.00
2023-04-28T02:54:32.181Z,608.00
2023-04-28T02:55:32.163Z,604.00
2023-04-28T02:56:32.151Z,607.00
2023-04-28T02:57:32.170Z,611.00
2023-04-28T02:58:32.159Z,607.00
2023-04-28T02:59:32.227Z,610.00
2023-04-28T03:00:32.187Z,613.00
2023-04-28T03:01:32.260Z,613.00
2023-04-28T03:02:32.305Z,614.00
2023-04-28T03:03:32.278Z,611.00
2023-04-28T03:04:32.233Z,616.00
2023-04-28T03:05:32.199Z,624.00
2023-04-28T03:06:32.190Z,616.00
2023-04-28T03:07:32.224Z,625.00
2023-04-28T03:08:32.216Z,629.00
2023-04-28T03:09:32.195Z,638.00
2023-04-28T03:10:32.237Z,642.00
2023-04-28T03:11:32.242Z,647.00
2023-04-28T03:12:32.214Z,651.00
2023-04-28T03:13:32.200Z,659.00
2023-04-28T03:14:32.209Z,665.00
2023-04-28T03:15:32.219Z,670.00
2023-04-28T03:16:32.265Z,678.00
2023-04-28T03:17:32.246Z,706.00
2023-04-28T03:18:32.221Z,716.00
2023-04-28T03:19:32.212Z,734.00
2023-04-28T03:20:32.220Z,747.00
2023-04-28T03:21:32.224Z,750.00
2023-04-28T03:22:32.223Z,772.00
2023-04-28T03:23:32.228Z,784.00
2023-04-28T03:24:32.216Z,780.00
2023-04-28T03:25:32.226Z,780.00
2023-04-28T03:26:32.259Z,793.00
2023-04-28T03:27:32.258Z,797.00
2023-04-28T03:28:32.266Z,794.00
2023-04-28T03:29:32.272Z,812.00
2023-04-28T03:30:32.241Z,796.00
2023-04-28T03:31:32.317Z,819.00
2023-04-28T03:32:32.354Z,818.00
2023-04-28T03:33:32.229Z,837.00
2023-04-28T03:34:32.247Z,845.00
2023-04-28T03:35:32.240Z,848.00
2023-04-28T03:36:32.245Z,844.00
2023-04-28T03:37:32.276Z,851.00
2023-04-28T03:38:32.291Z,855.00
2023-04-28T03:39:32.257Z,862.00
2023-04-28T03:40:32.289Z,874.00
2023-04-28T03:41:32.317Z,883.00
2023-04-28T03:42:32.294Z,883.00
2023-04-28T03:43:32.309Z,882.00
2023-04-28T03:44:32.343Z,891.00
2023-04-28T03:45:32.388Z,882.00
2023-04-28T03:46:32.336Z,874.00
2023-04-28T03:47:32.342Z,873.00
2023-04-28T03:48:32.387Z,877.00
2023-04-28T03:49:32.332Z,877.00
2023-04-28T03:50:32.339Z,888.00
2023-04-28T03:51:32.338Z,881.00
2023-04-28T03:52:32.398Z,890.00
2023-04-28T03:53:32.358Z,905.00
2023-04-28T03:54:32.364Z,903.00
2023-04-28T03:55:32.390Z,923.00
2023-04-28T03:56:32.376Z,930.00
2023-04-28T03:57:32.383Z,941.00
2023-04-28T03:58:32.379Z,947.00
2023-04-28T03:59:32.395Z,936.00
2023-04-28T04:00:32.428Z,957.00
2023-04-28T04:01:32.418Z,961.00
2023-04-28T04:02:32.515Z,969.00
2023-04-28T04:03:32.575Z,963.00
2023-04-28T04:04:32.757Z,976.00
2023-04-28T04:05:32.452Z,972.00
2023-04-28T04:06:32.465Z,986.00
2023-04-28T04:07:32.473Z,993.00
2023-04-28T04:08:32.481Z,987.00
2023-04-28T04:09:32.457Z,987.00
2023-04-28T04:10:32.505Z,990.00
2023-04-28T04:11:32.491Z,995.00
2023-04-28T04:12:32.514Z,976.00
2023-04-28T04:13:32.541Z,975.00
2023-04-28T04:14:32.532Z,970.00
2023-04-28T04:15:32.624Z,966.00
2023-04-28T04:16:32.579Z,964.00
2023-04-28T04:17:32.620Z,965.00
2023-04-28T04:18:32.584Z,949.00
2023-04-28T04:19:32.618Z,954.00
2023-04-28T04:20:32.611Z,963.00
2023-04-28T04:21:32.625Z,963.00
2023-04-28T04:22:32.635Z,969.00
2023-04-28T04:23:32.627Z,963.00
2023-04-28T04:24:32.680Z,956.00
2023-04-28T04:25:32.655Z,945.00
2023-04-28T04:26:32.679Z,944.00
2023-04-28T04:27:32.696Z,941.00
2023-04-28T04:28:32.673Z,953.00
2023-04-28T04:29:32.705Z,944.00
2023-04-28T04:30:32.731Z,932.00
2023-04-28T04:31:32.737Z,945.00
2023-04-28T04:32:32.856Z,969.00
2023-04-28T04:33:32.765Z,977.00
2023-04-28T04:34:32.802Z,994.00
2023-04-28T04:35:32.787Z,1004.00
2023-04-28T04:36:32.817Z,1007.00
2023-04-28T04:37:32.823Z,1012.00
2023-04-28T04:38:32.820Z,1009.00
2023-04-28T04:39:32.838Z,1017.00
2023-04-28T04:40:32.874Z,1025.00
2023-04-28T04:41:32.869Z,1032.00
2023-04-28T04:42:32.940Z,1037.00
2023-04-28T04:43:32.900Z,1034.00
2023-04-28T04:44:32.884Z,1031.00
2023-04-28T04:45:32.912Z,1049.00
2023-04-28T04:46:32.970Z,1041.00
2023-04-28T04:47:33.017Z,1048.00
2023-04-28T04:48:32.922Z,1054.00
2023-04-28T04:49:32.942Z,1048.00
2023-04-28T04:50:32.943Z,1044.00
2023-04-28T04:51:32.936Z,1056.00
2023-04-28T04:52:33.020Z,1069.00
2023-04-28T04:53:33.693Z,1059.00
2023-04-28T04:54:33.082Z,1096.00
2023-04-28T04:55:33.162Z,1111.00
2023-04-28T04:56:33.177Z,1110.00
2023-04-28T04:57:33.284Z,1126.00
2023-04-28T04:58:33.339Z,1150.00
2023-04-28T04:59:33.382Z,1145.00
2023-04-28T05:00:33.440Z,1139.00
2023-04-28T05:01:33.500Z,1134.00
2023-04-28T05:02:33.707Z,1143.00
2023-04-28T05:03:33.691Z,1144.00
2023-04-28T05:04:33.744Z,1155.00
2023-04-28T05:05:33.794Z,1160.00
2023-04-28T05:06:33.775Z,1180.00
2023-04-28T05:07:34.248Z,1188.00
2023-04-28T05:08:33.880Z,1211.00
2023-04-28T05:09:33.954Z,1205.00
2023-04-28T05:10:33.989Z,1218.00
2023-04-28T05:11:34.025Z,1221.00
2023-04-28T05:12:34.045Z,1242.00
2023-04-28T05:13:34.102Z,1239.00
2023-04-28T05:14:34.149Z,1251.00
2023-04-28T05:15:34.209Z,1268.00
2023-04-28T05:16:34.284Z,1277.00
2023-04-28T05:17:34.304Z,1274.00
2023-04-28T05:18:34.316Z,1283.00
2023-04-28T05:19:34.389Z,1291.00
2023-04-28T05:20:34.384Z,1302.00
2023-04-28T05:21:34.400Z,1321.00
2023-04-28T05:22:34.459Z,1333.00
2023-04-28T05:23:34.517Z,1373.00
2023-04-28T05:24:34.521Z,1363.00
2023-04-28T05:25:34.579Z,1379.00
2023-04-28T05:26:34.625Z,1384.00
2023-04-28T05:27:34.606Z,1394.00
2023-04-28T05:28:34.669Z,1402.00
2023-04-28T05:29:34.682Z,1407.00
2023-04-28T05:30:34.723Z,1427.00
2023-04-28T05:31:34.782Z,1423.00
2023-04-28T05:32:34.811Z,1422.00
2023-04-28T05:33:34.774Z,1422.00
2023-04-28T05:34:34.890Z,1431.00
2023-04-28T05:35:34.796Z,1417.00
2023-04-28T05:36:34.826Z,1476.00
2023-04-28T05:37:34.858Z,1464.00
2023-04-28T05:38:34.951Z,1496.00
2023-04-28T05:39:34.913Z,1523.00
2023-04-28T05:40:34.913Z,1620.00
2023-04-28T05:41:34.912Z,1611.00
2023-04-28T05:42:35.256Z,1644.00
2023-04-28T05:43:34.961Z,1679.00
2023-04-28T05:44:34.980Z,1718.00
2023-04-28T05:45:35.089Z,1738.00
2023-04-28T05:46:35.021Z,1760.00
2023-04-28T05:47:35.045Z,1792.00
2023-04-28T05:48:35.017Z,1819.00
2023-04-28T05:49:34.986Z,1855.00
2023-04-28T05:50:36.523Z,1895.00
2023-04-28T05:51:35.176Z,1971.00
2023-04-28T05:52:35.237Z,1988.00
2023-04-28T05:53:35.220Z,1961.00
2023-04-28T05:54:35.245Z,1961.00
2023-04-28T05:55:35.336Z,2033.00
2023-04-28T05:56:35.352Z,2075.00
2023-04-28T05:57:49.346Z,2104.00
2023-04-28T05:58:36.432Z,2106.00
2023-04-28T05:59:35.404Z,2111.00
2023-04-28T06:00:35.411Z,2140.00
2023-04-28T06:01:35.484Z,2167.00
2023-04-28T06:02:35.877Z,2217.00
2023-04-28T06:03:35.692Z,2244.00
2023-04-28T06:04:35.890Z,2260.00
2023-04-28T06:05:35.756Z,2279.00
2023-04-28T06:06:35.629Z,2290.00
2023-04-28T06:07:35.766Z,2300.00
2023-04-28T06:08:35.711Z,2345.00
2023-04-28T06:09:35.712Z,2345.00
2023-04-28T06:10:35.772Z,2381.00
2023-04-28T06:11:35.776Z,2417.00
2023-04-28T06:12:35.833Z,2447.00
2023-04-28T06:13:35.841Z,2479.00
2023-04-28T06:14:35.854Z,2502.00
2023-04-28T06:15:36.003Z,2532.00
2023-04-28T06:16:35.981Z,2543.00
2023-04-28T06:17:35.998Z,2560.00
2023-04-28T06:18:35.984Z,2576.00
2023-04-28T06:19:35.979Z,2612.00
2023-04-28T06:20:35.999Z,2626.00
2023-04-28T06:21:36.004Z,2641.00
2023-04-28T06:22:36.004Z,2646.00
2023-04-28T06:23:36.022Z,2678.00
2023-04-28T06:24:36.052Z,2710.00
2023-04-28T06:25:36.037Z,2713.00
2023-04-28T06:26:36.072Z,2723.00
2023-04-28T06:27:36.063Z,2750.00
2023-04-28T06:28:36.036Z,2739.00
2023-04-28T06:29:36.070Z,2743.00
2023-04-28T06:30:36.060Z,2755.00
2023-04-28T06:31:36.107Z,2760.00
2023-04-28T06:32:36.098Z,2762.00
2023-04-28T06:33:36.040Z,2791.00
2023-04-28T06:34:36.071Z,2801.00
2023-04-28T06:35:36.062Z,2808.00
2023-04-28T06:36:36.072Z,2803.00
2023-04-28T06:37:36.084Z,2805.00
2023-04-28T06:38:36.069Z,2787.00
2023-04-28T06:39:36.044Z,2796.00
2023-04-28T06:40:36.079Z,2794.00
2023-04-28T06:41:36.063Z,2792.00
2023-04-28T06:42:36.052Z,2794.00
2023-04-28T06:43:36.063Z,2811.00
2023-04-28T06:44:36.855Z,2816.00
2023-04-28T06:45:36.077Z,2852.00
2023-04-28T06:46:36.101Z,2860.00
2023-04-28T06:47:36.264Z,2850.00
2023-04-28T06:48:36.064Z,2847.00
2023-04-28T06:49:36.102Z,2855.00
2023-04-28T06:50:36.077Z,2853.00
2023-04-28T06:51:36.110Z,2833.00
2023-04-28T06:52:39.344Z,2833.00
2023-04-28T06:53:36.128Z,2813.00
2023-04-28T06:54:36.091Z,2809.00
2023-04-28T06:55:36.112Z,2838.00
2023-04-28T06:56:36.067Z,2845.00
2023-04-28T06:57:36.114Z,2862.00
2023-04-28T06:58:36.054Z,2861.00
2023-04-28T06:59:36.036Z,2892.00
2023-04-28T07:00:36.069Z,2904.00
2023-04-28T07:01:36.030Z,2900.00
2023-04-28T07:02:36.413Z,2910.00
2023-04-28T07:03:36.054Z,2931.00
2023-04-28T07:04:36.014Z,2956.00
2023-04-28T07:05:36.020Z,2995.00
2023-04-28T07:06:35.994Z,2984.00
2023-04-28T07:07:36.014Z,3018.00
2023-04-28T07:08:35.973Z,3024.00
2023-04-28T07:09:35.969Z,3037.00
2023-04-28T07:10:35.966Z,3034.00
2023-04-28T07:11:35.945Z,3031.00
2023-04-28T07:12:35.945Z,3037.00
2023-04-28T07:13:35.958Z,3040.00
2023-04-28T07:14:36.021Z,3041.00
2023-04-28T07:15:35.968Z,3059.00
2023-04-28T07:16:35.964Z,3050.00
2023-04-28T07:17:35.909Z,3058.00
2023-04-28T07:18:35.907Z,3052.00
2023-04-28T07:19:35.896Z,3074.00
2023-04-28T07:20:35.885Z,3077.00
2023-04-28T07:21:35.899Z,3084.00
2023-04-28T07:22:35.895Z,3070.00
2023-04-28T07:23:36.263Z,3072.00
2023-04-28T07:24:35.913Z,3072.00
2023-04-28T07:25:35.857Z,3062.00
2023-04-28T07:26:35.916Z,3075.00
2023-04-28T07:27:35.847Z,3067.00
2023-04-28T07:28:35.881Z,3067.00
2023-04-28T07:29:35.871Z,3082.00
2023-04-28T07:30:35.847Z,3101.00
2023-04-28T07:31:35.892Z,3084.00
2023-04-28T07:32:35.911Z,3119.00
2023-04-28T07:33:35.834Z,3178.00
2023-04-28T07:34:35.854Z,3175.00
2023-04-28T07:35:35.856Z,3109.00
2023-04-28T07:36:35.933Z,3090.00
2023-04-28T07:37:35.954Z,3116.00
2023-04-28T07:38:36.042Z,3055.00
2023-04-28T07:39:36.099Z,3059.00
2023-04-28T07:40:36.150Z,3050.00
2023-04-28T07:41:36.807Z,3010.00
2023-04-28T07:42:36.243Z,2989.00
2023-04-28T07:43:36.787Z,2973.00
2023-04-28T07:44:36.400Z,2929.00
2023-04-28T07:45:36.475Z,2920.00
2023-04-28T07:46:36.508Z,2953.00
2023-04-28T07:47:36.618Z,3001.00
2023-04-28T07:48:36.623Z,2997.00
2023-04-28T07:49:36.675Z,2997.00
2023-04-28T07:50:36.698Z,2996.00
2023-04-28T07:51:36.780Z,2978.00
2023-04-28T07:52:36.838Z,2978.00
2023-04-28T07:53:36.895Z,2971.00
2023-04-28T07:54:37.253Z,2969.00
2023-04-28T07:55:37.006Z,2943.00
2023-04-28T07:56:37.026Z,2932.00
2023-04-28T07:57:37.114Z,2910.00
2023-04-28T07:58:37.125Z,2882.00
2023-04-28T07:59:37.198Z,2868.00
2023-04-28T08:00:37.942Z,2860.00
2023-04-28T08:01:37.259Z,2854.00
2023-04-28T08:02:37.465Z,2855.00
2023-04-28T08:03:37.520Z,2844.00
2023-04-28T08:04:37.578Z,2862.00
2023-04-28T08:05:37.410Z,2866.00
2023-04-28T08:06:37.398Z,2852.00
2023-04-28T08:07:37.452Z,2848.00
2023-04-28T08:08:37.383Z,2857.00
2023-04-28T08:09:37.420Z,2855.00
2023-04-28T08:10:37.418Z,2842.00
2023-04-28T08:11:37.476Z,2852.00
2023-04-28T08:12:37.543Z,2848.00
2023-04-28T08:13:37.539Z,2841.00
2023-04-28T08:14:37.585Z,2836.00
2023-04-28T08:15:37.679Z,2824.00
2023-04-28T08:16:37.592Z,2819.00
2023-04-28T08:17:37.636Z,2815.00
2023-04-28T08:18:37.787Z,2817.00
2023-04-28T08:19:38.323Z,2829.00
2023-04-28T08:20:37.740Z,2807.00
2023-04-28T08:21:37.768Z,2805.00
2023-04-28T08:22:37.770Z,2794.00
2023-04-28T08:23:37.752Z,2784.00
2023-04-28T08:24:37.761Z,2807.00
2023-04-28T08:25:37.780Z,2773.00
2023-04-28T08:26:37.791Z,2776.00
2023-04-28T08:27:37.772Z,2781.00
2023-04-28T08:28:37.751Z,2774.00
2023-04-28T08:29:37.751Z,2769.00
2023-04-28T08:30:37.768Z,2776.00
2023-04-28T08:31:37.777Z,2742.00
2023-04-28T08:32:37.819Z,2730.00
2023-04-28T08:33:37.785Z,2746.00
2023-04-28T08:34:37.786Z,2716.00
2023-04-28T08:35:37.823Z,2699.00
2023-04-28T08:36:37.803Z,2666.00
2023-04-28T08:37:37.817Z,2640.00
2023-04-28T08:38:37.785Z,2670.00
2023-04-28T08:39:37.770Z,2662.00
2023-04-28T08:40:37.809Z,2668.00
2023-04-28T08:41:37.817Z,2661.00
2023-04-28T08:42:37.784Z,2633.00
2023-04-28T08:43:37.803Z,2640.00
2023-04-28T08:44:37.790Z,2609.00
2023-04-28T08:45:37.765Z,2606.00
2023-04-28T08:46:37.821Z,2612.00
2023-04-28T08:47:37.778Z,2594.00
2023-04-28T08:48:37.774Z,2590.00
2023-04-28T08:49:37.793Z,2571.00
2023-04-28T08:50:37.831Z,2554.00
2023-04-28T08:51:39.083Z,2551.00
2023-04-28T08:52:37.774Z,2538.00
2023-04-28T08:53:59.220Z,2541.00
2023-04-28T08:54:38.780Z,2542.00
2023-04-28T08:55:37.808Z,2545.00
2023-04-28T08:56:37.797Z,2547.00
2023-04-28T08:57:39.205Z,2544.00
2023-04-28T08:58:37.825Z,2540.00
2023-04-28T08:59:37.740Z,2550.00
2023-04-28T09:00:37.723Z,2530.00
2023-04-28T09:01:37.785Z,2516.00
2023-04-28T09:02:37.924Z,2509.00
2023-04-28T09:03:37.915Z,2493.00
2023-04-28T09:04:37.967Z,2496.00
2023-04-28T09:05:37.789Z,2472.00
2023-04-28T09:06:37.691Z,2451.00
2023-04-28T09:07:37.694Z,2449.00
2023-04-28T09:08:37.687Z,2448.00
2023-04-28T09:09:39.225Z,2464.00
2023-04-28T09:10:37.669Z,2460.00
2023-04-28T09:11:37.654Z,2463.00
2023-04-28T09:12:37.658Z,2460.00
2023-04-28T09:13:37.660Z,2438.00
2023-04-28T09:14:37.666Z,2433.00
2023-04-28T09:15:37.687Z,2447.00
2023-04-28T09:16:37.652Z,2437.00
2023-04-28T09:17:37.699Z,2431.00
2023-04-28T09:18:37.640Z,2413.00
2023-04-28T09:19:37.635Z,2411.00
2023-04-28T09:20:38.713Z,2384.00
2023-04-28T09:21:37.642Z,2376.00
2023-04-28T09:22:37.622Z,2384.00
2023-04-28T09:23:37.596Z,2398.00
2023-04-28T09:24:37.579Z,2375.00
2023-04-28T09:25:37.562Z,2377.00
2023-04-28T09:26:37.570Z,2370.00
2023-04-28T09:27:37.579Z,2368.00
2023-04-28T09:28:37.566Z,2352.00
2023-04-28T09:29:37.545Z,2347.00
2023-04-28T09:30:37.539Z,2358.00
2023-04-28T09:31:37.534Z,2346.00
2023-04-28T09:32:37.551Z,2343.00
2023-04-28T09:33:37.514Z,2329.00
2023-04-28T09:34:37.478Z,2335.00
2023-04-28T09:35:37.493Z,2332.00
2023-04-28T09:36:37.495Z,2327.00
2023-04-28T09:37:37.510Z,2350.00
2023-04-28T09:38:37.857Z,2360.00
2023-04-28T09:39:37.516Z,2374.00
2023-04-28T09:40:37.451Z,2419.00
2023-04-28T09:41:37.462Z,2385.00
2023-04-28T09:42:37.474Z,2342.00
2023-04-28T09:43:37.515Z,2322.00
2023-04-28T09:44:37.487Z,2293.00
2023-04-28T09:45:37.552Z,2294.00
2023-04-28T09:46:37.512Z,2354.00
2023-04-28T09:47:37.530Z,2381.00
2023-04-28T09:48:37.839Z,2344.00
2023-04-28T09:49:37.547Z,2340.00
2023-04-28T09:50:37.531Z,2277.00
2023-04-28T09:51:37.490Z,2252.00
2023-04-28T09:52:37.516Z,2173.00
2023-04-28T09:53:37.539Z,2057.00
2023-04-28T09:54:37.512Z,1996.00
2023-04-28T09:55:37.474Z,1985.00
2023-04-28T09:56:37.499Z,1912.00
2023-04-28T09:57:37.504Z,1867.00
2023-04-28T09:58:37.500Z,1863.00
2023-04-28T09:59:37.508Z,1740.00
2023-04-28T10:00:37.530Z,1787.00
2023-04-28T10:01:37.530Z,1728.00
2023-04-28T10:03:37.737Z,1779.00
2023-04-28T10:04:37.694Z,1711.00
2023-04-28T10:05:37.588Z,1787.00
2023-04-28T10:06:37.509Z,1688.00
2023-04-28T10:07:37.476Z,1672.00
2023-04-28T10:08:37.464Z,1611.00
2023-04-28T10:09:37.458Z,1668.00
2023-04-28T10:10:37.552Z,1618.00
2023-04-28T10:11:37.439Z,1572.00
2023-04-28T10:12:37.437Z,1536.00
2023-04-28T10:13:37.448Z,1543.00
2023-04-28T10:14:37.400Z,1546.00
2023-04-28T10:15:37.438Z,1521.00
2023-04-28T10:16:37.404Z,1548.00
2023-04-28T10:17:37.489Z,1644.00
2023-04-28T10:18:37.419Z,1644.00
2023-04-28T10:19:37.406Z,1562.00
2023-04-28T10:20:37.378Z,1557.00
2023-04-28T10:21:39.350Z,1567.00
2023-04-28T10:22:37.350Z,1628.00
2023-04-28T10:23:37.380Z,1634.00
2023-04-28T10:24:37.379Z,1639.00
2023-04-28T10:25:37.341Z,1654.00
2023-04-28T10:26:37.328Z,1639.00
2023-04-28T10:27:37.335Z,1639.00
2023-04-28T10:28:37.352Z,1639.00
2023-04-28T10:29:37.317Z,1708.00
2023-04-28T10:30:37.320Z,1677.00
2023-04-28T10:31:37.340Z,1709.00
2023-04-28T10:32:37.366Z,1777.00
2023-04-28T10:33:37.308Z,1835.00
2023-04-28T10:34:37.283Z,1856.00
2023-04-28T10:35:37.346Z,1849.00
2023-04-28T10:36:37.385Z,1937.00
2023-04-28T10:37:37.464Z,1952.00
2023-04-28T10:38:37.850Z,1978.00
2023-04-28T10:39:37.568Z,2002.00
2023-04-28T10:40:37.635Z,2016.00
2023-04-28T10:41:37.714Z,2046.00
2023-04-28T10:42:37.753Z,2046.00
2023-04-28T10:43:37.921Z,2071.00
2023-04-28T10:44:37.845Z,2114.00
2023-04-28T10:45:37.865Z,2140.00
2023-04-28T10:46:37.994Z,2045.00
2023-04-28T10:47:37.991Z,2025.00
2023-04-28T10:48:38.088Z,2046.00
2023-04-28T10:49:38.101Z,1990.00
2023-04-28T10:50:39.143Z,1957.00
2023-04-28T10:51:38.228Z,1995.00
2023-04-28T10:52:38.285Z,2036.00
2023-04-28T10:53:38.344Z,2086.00
2023-04-28T10:54:38.397Z,2150.00
2023-04-28T10:55:38.452Z,2150.00
2023-04-28T10:56:39.807Z,2183.00
2023-04-28T10:57:38.486Z,2201.00
2023-04-28T10:58:38.532Z,2203.00
2023-04-28T10:59:38.517Z,2193.00
2023-04-28T11:00:38.544Z,2187.00
2023-04-28T11:01:38.555Z,2155.00
2023-04-28T11:02:40.433Z,2162.00
2023-04-28T11:03:38.543Z,2165.00
2023-04-28T11:04:38.527Z,2169.00
2023-04-28T11:05:38.445Z,2181.00
2023-04-28T11:06:38.479Z,2212.00
2023-04-28T11:07:38.488Z,2233.00
2023-04-28T11:08:38.466Z,2238.00
2023-04-28T11:09:38.466Z,2221.00
2023-04-28T11:10:38.413Z,2230.00
2023-04-28T11:11:38.446Z,2217.00
2023-04-28T11:12:38.432Z,2239.00
2023-04-28T11:13:39.650Z,2237.00
2023-04-28T11:14:38.491Z,2244.00
2023-04-28T11:15:38.409Z,2236.00
2023-04-28T11:16:38.476Z,2172.00
2023-04-28T11:17:38.364Z,2143.00
2023-04-28T11:18:38.358Z,2172.00
2023-04-28T11:19:38.399Z,2181.00
2023-04-28T11:20:38.374Z,2205.00
2023-04-28T11:21:38.347Z,2254.00
2023-04-28T11:22:38.851Z,2280.00
2023-04-28T11:23:38.329Z,2283.00
2023-04-28T11:24:38.324Z,2265.00
2023-04-28T11:25:38.347Z,2286.00
2023-04-28T11:26:38.349Z,2291.00
2023-04-28T11:27:38.289Z,2321.00
2023-04-28T11:28:38.335Z,2354.00
2023-04-28T11:29:38.413Z,2351.00
2023-04-28T11:30:38.309Z,2432.00
2023-04-28T11:31:38.336Z,2395.00
2023-04-28T11:32:38.361Z,2393.00
2023-04-28T11:33:38.267Z,2410.00
2023-04-28T11:34:38.303Z,2430.00
2023-04-28T11:35:38.290Z,2417.00
2023-04-28T11:36:38.278Z,2422.00
2023-04-28T11:37:38.270Z,2401.00
2023-04-28T11:38:38.272Z,2409.00
2023-04-28T11:39:38.252Z,2416.00
2023-04-28T11:40:38.230Z,2396.00
2023-04-28T11:41:38.233Z,2374.00
2023-04-28T11:42:38.223Z,2375.00
2023-04-28T11:43:46.957Z,2369.00
2023-04-28T11:44:39.211Z,2371.00
2023-04-28T11:45:38.196Z,2363.00
2023-04-28T11:46:38.201Z,2361.00
2023-04-28T11:47:38.230Z,2357.00
2023-04-28T11:48:38.196Z,2363.00
2023-04-28T11:49:39.041Z,2345.00
2023-04-28T11:50:38.187Z,2326.00
2023-04-28T11:51:38.210Z,2338.00
2023-04-28T11:52:38.143Z,2335.00
2023-04-28T11:53:38.169Z,2340.00
2023-04-28T11:54:38.235Z,2341.00
2023-04-28T11:55:38.838Z,2347.00
2023-04-28T11:56:38.365Z,2356.00
2023-04-28T11:57:38.437Z,2351.00
2023-04-28T11:58:38.471Z,2335.00
2023-04-28T11:59:39.960Z,2316.00
2023-04-28T12:00:38.477Z,2284.00
2023-04-28T12:01:38.438Z,2238.00
2023-04-28T12:02:38.622Z,2236.00
2023-04-28T12:03:38.710Z,2237.00
2023-04-28T12:04:38.456Z,2244.00
2023-04-28T12:05:39.140Z,2249.00
2023-04-28T12:06:38.436Z,2247.00
2023-04-28T12:07:38.396Z,2272.00
2023-04-28T12:08:38.396Z,2261.00
2023-04-28T12:09:38.390Z,2257.00
2023-04-28T12:10:38.388Z,2259.00
2023-04-28T12:11:38.390Z,2267.00
2023-04-28T12:12:49.753Z,2272.00
2023-04-28T12:13:39.373Z,2274.00
2023-04-28T12:14:38.370Z,2275.00
2023-04-28T12:15:38.356Z,2279.00